sensor_id;sensor_type;location;lat;lon;timestamp;pressure;altitude;pressure_sealevel;temperature;humidity
5679;BME280;2862;52.560;13.566;2023-05-02T00:04:57;100456.47;;;15.10;47.48
5679;BME280;2862;52.560;13.566;2023-05-02T00:15:00;100452.09;;;15.09;46.96
5679;BME280;2862;52.560;13.566;2023-05-02T00:25:06;100452.75;;;15.03;46.56
5679;BME280;2862;52.560;13.566;2023-05-02T00:35:09;100442.59;;;14.88;46.04
5679;BME280;2862;52.560;13.566;2023-05-02T00:45:14;100438.69;;;14.75;47.15
5679;BME280;2862;52.560;13.566;2023-05-02T00:55:18;100445.47;;;14.53;46.32
5679;BME280;2862;52.560;13.566;2023-05-02T01:05:27;100443.00;;;14.42;47.39
5679;BME280;2862;52.560;13.566;2023-05-02T01:15:36;100442.94;;;14.33;46.61
5679;BME280;2862;52.560;13.566;2023-05-02T01:25:58;100443.25;;;14.22;47.49
5679;BME280;2862;52.560;13.566;2023-05-02T01:36:06;100448.38;;;14.16;48.28
5679;BME280;2862;52.560;13.566;2023-05-02T01:46:11;100459.56;;;14.03;49.21
5679;BME280;2862;52.560;13.566;2023-05-02T01:56:18;100469.41;;;13.94;50.43
5679;BME280;2862;52.560;13.566;2023-05-02T02:06:22;100470.16;;;13.87;50.67
5679;BME280;2862;52.560;13.566;2023-05-02T02:16:29;100474.69;;;13.86;52.14
5679;BME280;2862;52.560;13.566;2023-05-02T02:26:33;100483.41;;;13.62;53.43
5679;BME280;2862;52.560;13.566;2023-05-02T02:36:44;100500.72;;;13.32;54.58
5679;BME280;2862;52.560;13.566;2023-05-02T02:46:58;100515.75;;;13.15;55.79
5679;BME280;2862;52.560;13.566;2023-05-02T02:57:08;100544.06;;;13.00;56.52
5679;BME280;2862;52.560;13.566;2023-05-02T03:07:14;100552.19;;;12.90;57.30
5679;BME280;2862;52.560;13.566;2023-05-02T03:17:19;100573.13;;;12.77;57.51
5679;BME280;2862;52.560;13.566;2023-05-02T03:27:24;100573.00;;;12.69;58.27
5679;BME280;2862;52.560;13.566;2023-05-02T03:37:28;100600.25;;;12.64;59.20
5679;BME280;2862;52.560;13.566;2023-05-02T03:47:33;100611.84;;;12.65;59.57
5679;BME280;2862;52.560;13.566;2023-05-02T03:57:38;100620.63;;;13.04;58.45
5679;BME280;2862;52.560;13.566;2023-05-02T04:07:45;100647.81;;;13.38;57.24
5679;BME280;2862;52.560;13.566;2023-05-02T04:17:50;100654.81;;;14.04;55.72
5679;BME280;2862;52.560;13.566;2023-05-02T04:27:55;100656.94;;;15.76;50.23
5679;BME280;2862;52.560;13.566;2023-05-02T04:38:00;100687.78;;;15.81;50.16
5679;BME280;2862;52.560;13.566;2023-05-02T04:48:04;100689.72;;;16.88;47.95
5679;BME280;2862;52.560;13.566;2023-05-02T04:58:10;100687.72;;;18.55;43.95
5679;BME280;2862;52.560;13.566;2023-05-02T05:08:14;100705.69;;;21.00;38.12
5679;BME280;2862;52.560;13.566;2023-05-02T05:18:19;100725.00;;;22.02;35.57
5679;BME280;2862;52.560;13.566;2023-05-02T05:28:23;100734.94;;;24.73;31.15
5679;BME280;2862;52.560;13.566;2023-05-02T05:38:27;100738.47;;;25.99;29.17
5679;BME280;2862;52.560;13.566;2023-05-02T05:48:30;100748.06;;;28.67;25.93
5679;BME280;2862;52.560;13.566;2023-05-02T05:58:35;100766.72;;;31.14;22.23
5679;BME280;2862;52.560;13.566;2023-05-02T06:08:40;100776.56;;;32.22;21.30
5679;BME280;2862;52.560;13.566;2023-05-02T06:18:45;100801.22;;;32.18;21.54
5679;BME280;2862;52.560;13.566;2023-05-02T06:28:48;100819.97;;;31.37;21.86
5679;BME280;2862;52.560;13.566;2023-05-02T06:38:52;100846.03;;;31.46;22.03
5679;BME280;2862;52.560;13.566;2023-05-02T06:48:55;100846.97;;;33.09;21.76
5679;BME280;2862;52.560;13.566;2023-05-02T06:59:00;100872.50;;;34.13;19.91
5679;BME280;2862;52.560;13.566;2023-05-02T07:09:03;100884.94;;;32.41;21.65
5679;BME280;2862;52.560;13.566;2023-05-02T07:19:07;100910.44;;;29.81;24.52
5679;BME280;2862;52.560;13.566;2023-05-02T07:29:10;100921.50;;;24.75;31.77
5679;BME280;2862;52.560;13.566;2023-05-02T07:39:14;100926.09;;;26.21;30.45
5679;BME280;2862;52.560;13.566;2023-05-02T07:49:16;100928.78;;;25.01;32.33
5679;BME280;2862;52.560;13.566;2023-05-02T07:59:21;100955.41;;;22.59;37.10
5679;BME280;2862;52.560;13.566;2023-05-02T08:09:24;100976.25;;;20.51;41.25
5679;BME280;2862;52.560;13.566;2023-05-02T08:19:28;100980.09;;;18.96;46.22
5679;BME280;2862;52.560;13.566;2023-05-02T08:29:31;100995.88;;;18.84;47.84
5679;BME280;2862;52.560;13.566;2023-05-02T08:39:36;101006.28;;;18.40;49.22
5679;BME280;2862;52.560;13.566;2023-05-02T08:49:39;101022.75;;;17.98;50.33
5679;BME280;2862;52.560;13.566;2023-05-02T08:59:43;101036.00;;;17.59;52.29
5679;BME280;2862;52.560;13.566;2023-05-02T09:09:46;101053.56;;;17.55;53.90
5679;BME280;2862;52.560;13.566;2023-05-02T09:19:59;101075.25;;;17.71;53.26
5679;BME280;2862;52.560;13.566;2023-05-02T09:30:19;101090.03;;;17.93;53.38
5679;BME280;2862;52.560;13.566;2023-05-02T09:40:24;101088.56;;;18.72;50.97
5679;BME280;2862;52.560;13.566;2023-05-02T09:50:32;101099.31;;;17.82;53.45
5679;BME280;2862;52.560;13.566;2023-05-02T10:00:41;101116.31;;;18.25;52.87
5679;BME280;2862;52.560;13.566;2023-05-02T10:10:49;101115.94;;;18.12;52.45
5679;BME280;2862;52.560;13.566;2023-05-02T10:20:57;101128.69;;;18.76;51.34
5679;BME280;2862;52.560;13.566;2023-05-02T10:31:01;101127.09;;;19.06;50.32
5679;BME280;2862;52.560;13.566;2023-05-02T10:41:08;101150.81;;;18.39;52.14
5679;BME280;2862;52.560;13.566;2023-05-02T10:51:26;101166.75;;;18.42;52.17
5679;BME280;2862;52.560;13.566;2023-05-02T11:01:35;101195.25;;;17.62;53.76
5679;BME280;2862;52.560;13.566;2023-05-02T11:11:41;101214.19;;;17.10;55.20
5679;BME280;2862;52.560;13.566;2023-05-02T11:21:45;101234.13;;;16.55;56.69
5679;BME280;2862;52.560;13.566;2023-05-02T11:31:52;101249.53;;;16.45;55.71
5679;BME280;2862;52.560;13.566;2023-05-02T11:41:57;101272.16;;;16.62;54.02
5679;BME280;2862;52.560;13.566;2023-05-02T11:52:00;101281.63;;;17.19;50.59
5679;BME280;2862;52.560;13.566;2023-05-02T12:02:05;101286.44;;;17.08;49.23
5679;BME280;2862;52.560;13.566;2023-05-02T12:12:08;101296.66;;;16.96;47.74
5679;BME280;2862;52.560;13.566;2023-05-02T12:22:12;101311.97;;;16.60;49.73
5679;BME280;2862;52.560;13.566;2023-05-02T12:32:26;101315.91;;;16.65;48.72
5679;BME280;2862;52.560;13.566;2023-05-02T12:42:30;101329.59;;;16.36;48.53
5679;BME280;2862;52.560;13.566;2023-05-02T12:52:48;101333.16;;;17.00;47.12
5679;BME280;2862;52.560;13.566;2023-05-02T13:02:53;101338.66;;;16.08;48.83
5679;BME280;2862;52.560;13.566;2023-05-02T13:12:56;101350.41;;;16.16;47.89
5679;BME280;2862;52.560;13.566;2023-05-02T13:23:01;101352.63;;;15.93;47.35
5679;BME280;2862;52.560;13.566;2023-05-02T13:33:03;101361.78;;;15.73;47.32
5679;BME280;2862;52.560;13.566;2023-05-02T13:43:08;101375.81;;;16.24;46.10
5679;BME280;2862;52.560;13.566;2023-05-02T13:53:10;101378.69;;;15.65;46.50
5679;BME280;2862;52.560;13.566;2023-05-02T14:03:16;101391.88;;;15.69;45.43
5679;BME280;2862;52.560;13.566;2023-05-02T14:13:19;101392.72;;;14.92;46.48
5679;BME280;2862;52.560;13.566;2023-05-02T14:23:22;101418.66;;;15.41;45.95
5679;BME280;2862;52.560;13.566;2023-05-02T14:33:26;101431.84;;;15.25;47.69
5679;BME280;2862;52.560;13.566;2023-05-02T14:43:31;101443.88;;;15.01;45.89
5679;BME280;2862;52.560;13.566;2023-05-02T14:53:34;101462.13;;;14.48;46.83
5679;BME280;2862;52.560;13.566;2023-05-02T15:03:38;101478.78;;;14.42;46.54
5679;BME280;2862;52.560;13.566;2023-05-02T15:13:50;101483.19;;;14.22;46.70
5679;BME280;2862;52.560;13.566;2023-05-02T15:23:54;101486.69;;;14.13;46.50
5679;BME280;2862;52.560;13.566;2023-05-02T15:33:57;101492.47;;;14.29;45.94
5679;BME280;2862;52.560;13.566;2023-05-02T15:44:01;101495.78;;;14.42;45.30
5679;BME280;2862;52.560;13.566;2023-05-02T15:54:09;101496.41;;;14.25;44.79
5679;BME280;2862;52.560;13.566;2023-05-02T16:04:14;101498.97;;;13.52;46.58
5679;BME280;2862;52.560;13.566;2023-05-02T16:14:16;101505.66;;;13.03;47.16
5679;BME280;2862;52.560;13.566;2023-05-02T16:24:25;101516.53;;;12.91;47.41
5679;BME280;2862;52.560;13.566;2023-05-02T16:34:50;101515.50;;;13.37;46.83
5679;BME280;2862;52.560;13.566;2023-05-02T16:44:55;101513.66;;;13.69;46.20
5679;BME280;2862;52.560;13.566;2023-05-02T16:54:59;101513.06;;;13.77;45.61
5679;BME280;2862;52.560;13.566;2023-05-02T17:05:03;101528.41;;;14.07;44.83
5679;BME280;2862;52.560;13.566;2023-05-02T17:15:07;101529.88;;;13.79;45.43
5679;BME280;2862;52.560;13.566;2023-05-02T17:25:12;101528.94;;;13.69;47.24
5679;BME280;2862;52.560;13.566;2023-05-02T17:35:15;101540.84;;;13.55;47.94
5679;BME280;2862;52.560;13.566;2023-05-02T17:45:20;101548.41;;;13.61;48.27
5679;BME280;2862;52.560;13.566;2023-05-02T17:55:23;101557.25;;;13.41;47.43
5679;BME280;2862;52.560;13.566;2023-05-02T18:05:27;101567.91;;;13.09;47.23
5679;BME280;2862;52.560;13.566;2023-05-02T18:15:30;101578.41;;;13.23;48.27
5679;BME280;2862;52.560;13.566;2023-05-02T18:25:34;101580.59;;;13.29;48.12
5679;BME280;2862;52.560;13.566;2023-05-02T18:35:38;101581.19;;;13.10;48.12
5679;BME280;2862;52.560;13.566;2023-05-02T18:45:48;101578.88;;;12.94;50.61
5679;BME280;2862;52.560;13.566;2023-05-02T18:55:52;101585.59;;;13.00;50.95
5679;BME280;2862;52.560;13.566;2023-05-02T19:05:57;101600.63;;;13.02;50.53
5679;BME280;2862;52.560;13.566;2023-05-02T19:16:01;101608.41;;;12.94;49.90
5679;BME280;2862;52.560;13.566;2023-05-02T19:26:10;101620.47;;;12.89;50.07
5679;BME280;2862;52.560;13.566;2023-05-02T19:36:13;101633.66;;;12.92;50.02
5679;BME280;2862;52.560;13.566;2023-05-02T19:46:17;101642.44;;;12.83;49.00
5679;BME280;2862;52.560;13.566;2023-05-02T19:56:21;101637.06;;;12.83;49.17
5679;BME280;2862;52.560;13.566;2023-05-02T20:06:27;101652.41;;;12.69;50.35
5679;BME280;2862;52.560;13.566;2023-05-02T20:16:35;101659.25;;;12.62;50.60
5679;BME280;2862;52.560;13.566;2023-05-02T20:26:41;101669.13;;;12.62;49.45
5679;BME280;2862;52.560;13.566;2023-05-02T20:36:44;101682.63;;;12.60;49.77
5679;BME280;2862;52.560;13.566;2023-05-02T20:46:49;101697.63;;;12.52;49.74
5679;BME280;2862;52.560;13.566;2023-05-02T20:56:53;101692.06;;;12.42;49.54
5679;BME280;2862;52.560;13.566;2023-05-02T21:06:57;101706.16;;;12.21;50.54
5679;BME280;2862;52.560;13.566;2023-05-02T21:17:01;101716.44;;;12.15;50.38
5679;BME280;2862;52.560;13.566;2023-05-02T21:27:06;101720.94;;;12.14;50.41
5679;BME280;2862;52.560;13.566;2023-05-02T21:37:09;101730.16;;;11.99;51.22
5679;BME280;2862;52.560;13.566;2023-05-02T21:47:14;101722.03;;;11.88;51.28
5679;BME280;2862;52.560;13.566;2023-05-02T21:57:17;101730.50;;;11.82;52.34
5679;BME280;2862;52.560;13.566;2023-05-02T22:07:22;101737.75;;;11.80;52.37
5679;BME280;2862;52.560;13.566;2023-05-02T22:17:25;101743.69;;;11.72;52.48
5679;BME280;2862;52.560;13.566;2023-05-02T22:27:31;101739.81;;;11.76;52.41
5679;BME280;2862;52.560;13.566;2023-05-02T22:37:33;101749.88;;;11.73;52.24
5679;BME280;2862;52.560;13.566;2023-05-02T22:47:38;101766.72;;;11.62;52.06
5679;BME280;2862;52.560;13.566;2023-05-02T22:57:41;101772.41;;;11.57;52.43
5679;BME280;2862;52.560;13.566;2023-05-02T23:07:46;101776.38;;;11.64;52.89
5679;BME280;2862;52.560;13.566;2023-05-02T23:17:49;101786.66;;;11.58;52.14
5679;BME280;2862;52.560;13.566;2023-05-02T23:27:54;101787.50;;;11.58;51.87
5679;BME280;2862;52.560;13.566;2023-05-02T23:37:58;101789.13;;;11.48;51.15
5679;BME280;2862;52.560;13.566;2023-05-02T23:48:02;101790.75;;;11.38;51.33
5679;BME280;2862;52.560;13.566;2023-05-02T23:58:05;101787.84;;;11.28;52.05
